Time;durP1;ratioP1;P1;durP2;ratioP2;P2;SDS_P1;SDS_P2;PMS_P1;PMS_P2;Temp;Humidity;BMP_temperature;BMP_pressure;BME280_temperature;BME280_humidity;BME280_pressure;Samples;Min_cycle;Max_cycle;Signal;HPM_P1;HPM_P2
2023/02/08 00:00:51;;;;;;;59.63;28.38;;;;;;;-0.36;83.00;102933.76;1693859;84;25468;-45
2023/02/08 00:03:19;;;;;;;59.30;28.07;;;;;;;-0.38;83.11;102933.41;1693658;83;34774;-47
2023/02/08 00:05:45;;;;;;;59.40;28.32;;;;;;;-0.38;83.12;102938.73;1693603;84;25404;-46
2023/02/08 00:08:12;;;;;;;63.17;31.65;;;;;;;-0.38;83.11;102940.58;1693583;84;26934;-47
2023/02/08 00:10:38;;;;;;;66.37;31.95;;;;;;;-0.39;83.10;102938.42;1693447;84;25568;-46
2023/02/08 00:13:04;;;;;;;60.35;29.27;;;;;;;-0.39;83.19;102947.73;1693571;84;25637;-47
2023/02/08 00:15:31;;;;;;;56.25;28.47;;;;;;;-0.39;83.14;102956.22;1693568;83;25659;-47
2023/02/08 00:17:57;;;;;;;60.78;29.30;;;;;;;-0.38;83.21;102952.55;1693559;83;25649;-48
2023/02/08 00:20:24;;;;;;;58.10;28.50;;;;;;;-0.38;83.22;102945.89;1699140;84;29519;-47
2023/02/08 00:22:50;;;;;;;60.78;28.52;;;;;;;-0.38;83.21;102957.36;1693409;84;25565;-48
2023/02/08 00:25:17;;;;;;;59.33;28.30;;;;;;;-0.38;83.24;102956.02;1693578;83;25473;-47
2023/02/08 00:27:43;;;;;;;56.00;27.05;;;;;;;-0.38;83.24;102952.55;1693474;83;25704;-49
2023/02/08 00:30:11;;;;;;;57.30;28.23;;;;;;;-0.40;83.25;102958.03;1693551;84;25557;-48
2023/02/08 00:32:37;;;;;;;65.45;29.85;;;;;;;-0.40;83.33;102955.37;1693558;84;27343;-47
2023/02/08 00:35:04;;;;;;;59.90;29.02;;;;;;;-0.39;83.35;102951.72;1693424;84;25433;-46
2023/02/08 00:37:31;;;;;;;59.18;28.83;;;;;;;-0.40;83.34;102954.04;1693460;84;25535;-47
2023/02/08 00:40:00;;;;;;;66.20;30.77;;;;;;;-0.40;83.35;102959.88;1692736;83;25662;-50
2023/02/08 00:42:26;;;;;;;59.10;29.20;;;;;;;-0.39;83.44;102952.23;1692874;83;25909;-48
2023/02/08 00:44:52;;;;;;;60.60;30.05;;;;;;;-0.38;83.41;102957.86;1692685;84;27341;-47
2023/02/08 00:47:19;;;;;;;64.87;30.82;;;;;;;-0.40;83.40;102956.70;1692544;83;25648;-47
2023/02/08 00:49:45;;;;;;;61.70;30.23;;;;;;;-0.40;83.50;102956.70;1693471;84;25627;-46
2023/02/08 00:52:11;;;;;;;60.12;30.08;;;;;;;-0.39;83.49;102957.55;1693504;84;26628;-47
2023/02/08 00:54:37;;;;;;;61.73;30.05;;;;;;;-0.40;83.44;102959.36;1693512;83;25651;-46
2023/02/08 00:57:03;;;;;;;61.60;31.00;;;;;;;-0.40;83.32;102962.02;1675682;84;25945;-49
2023/02/08 00:59:30;;;;;;;69.65;32.58;;;;;;;-0.39;83.42;102961.55;1693409;84;27151;-47
2023/02/08 01:01:56;;;;;;;68.05;31.10;;;;;;;-0.39;83.44;102965.53;1693473;84;25607;-47
2023/02/08 01:04:23;;;;;;;64.50;31.12;;;;;;;-0.41;83.45;102968.36;1693426;84;25686;-47
2023/02/08 01:06:50;;;;;;;68.37;32.85;;;;;;;-0.41;83.46;102968.36;1693620;84;25577;-48
2023/02/08 01:09:16;;;;;;;68.30;31.82;;;;;;;-0.42;83.50;102966.69;1693532;83;26979;-49
2023/02/08 01:11:42;;;;;;;66.60;31.48;;;;;;;-0.42;83.62;102965.36;1693524;83;25212;-49
2023/02/08 01:14:09;;;;;;;62.45;30.10;;;;;;;-0.42;83.58;102967.20;1693542;84;25616;-49
2023/02/08 01:16:36;;;;;;;63.05;30.52;;;;;;;-0.42;83.53;102970.67;1693482;83;25614;-47
2023/02/08 01:19:04;;;;;;;66.00;30.97;;;;;;;-0.41;83.57;102971.49;1693491;83;25396;-48
2023/02/08 01:21:36;;;;;;;63.00;32.42;;;;;;;-0.41;83.55;102971.02;1693595;83;27405;-49
2023/02/08 01:24:04;;;;;;;64.17;30.20;;;;;;;-0.40;83.52;102968.67;1693420;83;25531;-48
2023/02/08 01:26:32;;;;;;;68.90;30.92;;;;;;;-0.41;83.47;102968.84;1693629;83;25642;-46
2023/02/08 01:29:00;;;;;;;65.25;31.05;;;;;;;-0.42;83.45;102977.33;1693519;83;25686;-48
2023/02/08 01:31:31;;;;;;;63.48;29.50;;;;;;;-0.42;83.38;102974.66;1693536;84;25601;-48
2023/02/08 01:33:59;;;;;;;68.50;30.68;;;;;;;-0.41;83.20;102971.02;1693621;83;27274;-46
2023/02/08 01:36:28;;;;;;;65.20;29.27;;;;;;;-0.42;83.17;102966.69;1693550;83;25647;-48
2023/02/08 01:38:54;;;;;;;62.60;30.07;;;;;;;-0.43;83.03;102966.34;1693900;83;25459;-46
2023/02/08 01:41:28;;;;;;;72.03;32.03;;;;;;;-0.44;83.04;102967.87;1693584;84;25626;-48
2023/02/08 01:44:03;;;;;;;59.03;29.72;;;;;;;-0.47;83.07;102968.20;1693666;84;25477;-49
2023/02/08 01:46:31;;;;;;;67.08;31.93;;;;;;;-0.49;83.08;102967.55;1693568;84;27416;-48
2023/02/08 01:49:03;;;;;;;69.50;32.43;;;;;;;-0.52;83.13;102967.38;1693810;83;25395;-46
2023/02/08 01:51:35;;;;;;;70.05;33.78;;;;;;;-0.57;83.18;102959.89;1693915;83;25501;-46
2023/02/08 01:54:05;;;;;;;71.20;33.00;;;;;;;-0.59;83.45;102969.88;1693658;84;25609;-49
2023/02/08 01:56:37;;;;;;;70.32;33.40;;;;;;;-0.59;83.66;102971.71;1693679;84;25631;-47
2023/02/08 01:59:08;;;;;;;70.00;32.85;;;;;;;-0.60;83.79;102977.51;1693666;83;27902;-46
2023/02/08 02:01:37;;;;;;;66.20;32.63;;;;;;;-0.60;83.82;102978.84;1693486;84;25414;-47
2023/02/08 02:04:49;;;;;;;69.75;32.65;;;;;;;-0.61;83.96;102980.36;1692683;84;25274;-47
2023/02/08 02:07:19;;;;;;;78.72;34.50;;;;;;;-0.60;84.01;102982.00;1692860;83;25645;-46
2023/02/08 02:10:08;;;;;;;78.12;35.65;;;;;;;-0.60;84.10;102982.83;1693805;84;25568;-46
2023/02/08 02:12:37;;;;;;;78.20;35.15;;;;;;;-0.60;83.91;102981.50;1693717;84;27428;-46
2023/02/08 02:15:05;;;;;;;76.15;34.40;;;;;;;-0.60;84.16;102990.80;1693680;83;25701;-46
2023/02/08 02:17:33;;;;;;;75.35;34.95;;;;;;;-0.60;83.99;102989.98;1693621;84;25623;-46
2023/02/08 02:20:10;;;;;;;72.03;34.20;;;;;;;-0.59;83.94;102992.47;1693606;84;25695;-47
2023/02/08 02:23:00;;;;;;;75.47;33.35;;;;;;;-0.60;83.80;102984.16;1693275;83;25560;-46
2023/02/08 02:25:53;;;;;;;71.28;34.18;;;;;;;-0.60;83.97;102990.80;1693552;84;27343;-47
2023/02/08 02:28:59;;;;;;;74.05;35.00;;;;;;;-0.61;84.16;102987.83;1658194;84;25652;-50
2023/02/08 02:32:12;;;;;;;74.58;33.38;;;;;;;-0.60;84.25;102992.13;1693616;84;25478;-47
2023/02/08 02:34:50;;;;;;;73.55;34.88;;;;;;;-0.61;84.34;102997.13;1586083;89;27836;-46
2023/02/08 02:37:31;;;;;;;74.15;35.08;;;;;;;-0.61;84.11;102993.14;1586144;90;25544;-46
2023/02/08 02:40:27;;;;;;;66.72;33.67;;;;;;;-0.60;84.28;103003.27;1585736;90;27389;-47
2023/02/08 02:46:03;;;;;;;73.12;35.13;;;;;;;-0.61;84.41;103006.44;1585973;90;25639;-47
2023/02/08 02:48:38;;;;;;;72.97;33.30;;;;;;;-0.61;84.48;103010.94;1586063;90;25621;-48
2023/02/08 02:51:15;;;;;;;74.10;35.30;;;;;;;-0.61;84.57;103014.92;1585960;90;25524;-46
2023/02/08 02:53:53;;;;;;;77.75;35.63;;;;;;;-0.62;84.46;103006.60;1585825;90;27358;-46
2023/02/08 02:56:24;;;;;;;73.65;34.60;;;;;;;-0.62;84.48;103007.94;1585959;90;25663;-46
2023/02/08 02:58:54;;;;;;;75.15;35.98;;;;;;;-0.61;84.52;103013.59;1586086;90;25626;-47
2023/02/08 03:01:25;;;;;;;79.70;37.13;;;;;;;-0.62;84.64;103019.90;1586063;90;25671;-46
2023/02/08 03:03:53;;;;;;;69.90;35.05;;;;;;;-0.62;84.62;103022.05;1586062;90;25617;-46
2023/02/08 03:06:56;;;;;;;77.72;36.00;;;;;;;-0.63;84.57;103021.73;1586077;90;27430;-46
2023/02/08 03:10:01;;;;;;;76.37;36.25;;;;;;;-0.63;84.57;103020.41;1586001;90;27169;-47
2023/02/08 03:12:55;;;;;;;82.02;38.30;;;;;;;-0.63;84.59;103020.41;1693599;84;25716;-47
2023/02/08 03:15:57;;;;;;;77.53;37.35;;;;;;;-0.64;84.51;103018.73;1693679;84;25755;-47
2023/02/08 03:18:35;;;;;;;74.03;35.35;;;;;;;-0.64;84.54;103009.94;1693049;84;25644;-47
2023/02/08 03:21:28;;;;;;;77.25;36.20;;;;;;;-0.64;84.57;103017.41;1693696;84;27322;-47
2023/02/08 03:24:01;;;;;;;89.13;37.93;;;;;;;-0.64;84.58;103013.41;1692916;84;27401;-50
2023/02/08 03:26:39;;;;;;;75.55;34.50;;;;;;;-0.62;84.59;103018.56;1693563;84;25445;-51
2023/02/08 03:29:20;;;;;;;80.60;36.73;;;;;;;-0.63;84.67;103020.88;1692586;84;25656;-46
2023/02/08 03:31:52;;;;;;;75.75;36.53;;;;;;;-0.63;84.62;103027.53;1691659;84;25564;-49
2023/02/08 03:34:29;;;;;;;78.83;35.28;;;;;;;-0.65;84.71;103028.20;1691707;84;28073;-47
2023/02/08 03:37:04;;;;;;;78.00;34.90;;;;;;;-0.66;84.57;103024.72;1691314;84;26122;-46
2023/02/08 03:39:32;;;;;;;67.47;32.63;;;;;;;-0.63;84.55;103035.50;1692589;84;25642;-46
2023/02/08 03:42:03;;;;;;;71.50;33.45;;;;;;;-0.64;84.55;103037.85;1692538;84;26321;-46
2023/02/08 03:44:37;;;;;;;72.12;32.90;;;;;;;-0.64;84.63;103043.17;1692606;84;25435;-48
2023/02/08 03:47:20;;;;;;;68.90;31.05;;;;;;;-0.63;84.55;103043.48;1692395;84;27374;-47
2023/02/08 03:49:51;;;;;;;67.40;33.18;;;;;;;-0.65;84.50;103044.16;1692590;84;25591;-46
2023/02/08 03:52:19;;;;;;;69.75;31.77;;;;;;;-0.66;84.51;103052.63;1694247;84;25619;-47
2023/02/08 03:54:50;;;;;;;70.35;33.70;;;;;;;-0.68;84.44;103047.98;1692525;84;26188;-50
2023/02/08 03:57:34;;;;;;;66.82;32.10;;;;;;;-0.68;84.58;103053.78;1691494;84;25449;-47
2023/02/08 04:00:08;;;;;;;63.85;31.80;;;;;;;-0.69;84.71;103048.97;1692613;84;27402;-47
2023/02/08 04:02:39;;;;;;;67.27;31.97;;;;;;;-0.70;84.71;103051.80;1692506;84;25647;-50
2023/02/08 04:05:08;;;;;;;66.42;33.78;;;;;;;-0.70;84.64;103053.95;1692539;84;25712;-47
2023/02/08 04:07:34;;;;;;;67.65;32.67;;;;;;;-0.71;84.49;103045.66;1670739;84;25710;-47
2023/02/08 04:10:03;;;;;;;69.27;33.70;;;;;;;-0.70;84.55;103047.30;1692593;84;25651;-45
2023/02/08 04:12:29;;;;;;;68.72;32.65;;;;;;;-0.71;84.60;103052.81;1692553;84;27381;-50
2023/02/08 04:14:56;;;;;;;68.57;34.38;;;;;;;-0.72;84.52;103048.48;1692440;84;25569;-48
2023/02/08 04:17:23;;;;;;;61.73;28.90;;;;;;;-0.73;84.66;103050.80;1692509;84;25573;-48
2023/02/08 04:19:49;;;;;;;65.60;26.93;;;;;;;-0.76;84.77;103046.14;1692516;84;25735;-46
2023/02/08 04:22:15;;;;;;;56.83;25.80;;;;;;;-0.76;84.89;103055.45;1692548;84;25466;-49
2023/02/08 04:24:42;;;;;;;58.78;25.20;;;;;;;-0.77;84.89;103048.48;1692488;84;27476;-48
2023/02/08 04:27:08;;;;;;;65.15;26.20;;;;;;;-0.79;84.90;103054.95;1693213;84;25416;-47
2023/02/08 04:29:34;;;;;;;68.57;27.77;;;;;;;-0.81;85.05;103051.13;1699786;84;25409;-47
2023/02/08 04:32:03;;;;;;;62.00;25.95;;;;;;;-0.82;84.95;103053.47;1699718;84;25652;-48
2023/02/08 04:34:30;;;;;;;53.17;24.60;;;;;;;-0.83;84.96;103055.78;1670543;84;32355;-47
2023/02/08 04:36:56;;;;;;;59.27;24.90;;;;;;;-0.85;84.92;103052.47;1699752;84;27418;-49
2023/02/08 04:39:24;;;;;;;57.53;24.47;;;;;;;-0.86;84.96;103052.63;1699680;84;25619;-46
2023/02/08 04:41:50;;;;;;;57.43;23.80;;;;;;;-0.89;84.95;103053.77;1699784;84;25482;-48
2023/02/08 04:44:17;;;;;;;57.60;25.45;;;;;;;-0.91;85.08;103050.96;1699753;84;25635;-47
2023/02/08 04:46:44;;;;;;;56.80;25.15;;;;;;;-0.93;85.32;103049.80;1699770;84;25581;-47
2023/02/08 04:49:10;;;;;;;62.35;26.70;;;;;;;-0.96;85.35;103057.58;1699787;84;28029;-47
2023/02/08 04:51:38;;;;;;;62.25;24.40;;;;;;;-0.98;85.49;103055.59;1699693;84;25851;-46
2023/02/08 04:54:04;;;;;;;59.33;25.52;;;;;;;-0.98;85.58;103063.56;1699741;84;25455;-47
2023/02/08 04:56:30;;;;;;;63.98;25.90;;;;;;;-1.00;85.76;103063.41;1699727;84;25631;-46
2023/02/08 04:58:59;;;;;;;62.03;26.30;;;;;;;-0.99;85.73;103069.04;1699806;84;25632;-47
2023/02/08 05:01:26;;;;;;;61.58;23.98;;;;;;;-1.01;85.81;103067.87;1699863;84;27344;-48
2023/02/08 05:03:52;;;;;;;56.18;22.87;;;;;;;-1.00;85.82;103067.39;1699687;84;25455;-47
2023/02/08 05:06:18;;;;;;;58.60;24.25;;;;;;;-1.03;85.85;103059.23;1699766;84;25568;-46
2023/02/08 05:08:45;;;;;;;61.90;24.63;;;;;;;-1.01;85.93;103067.05;1699790;84;25611;-49
2023/02/08 05:11:11;;;;;;;54.48;23.15;;;;;;;-1.01;85.99;103065.21;1699818;84;25387;-47
2023/02/08 05:13:38;;;;;;;56.42;24.23;;;;;;;-1.00;86.02;103067.39;1699736;84;29478;-47
2023/02/08 05:16:05;;;;;;;52.73;22.75;;;;;;;-1.02;86.02;103073.34;1699661;84;25627;-50
2023/02/08 05:18:32;;;;;;;64.07;31.57;;;;;;;-1.02;85.96;103074.67;1699769;84;25651;-47
2023/02/08 05:21:00;;;;;;;74.97;48.63;;;;;;;-1.02;85.98;103076.00;1699727;84;25703;-46
2023/02/08 05:23:27;;;;;;;72.62;51.48;;;;;;;-1.01;86.03;103084.31;1700067;84;25493;-46
2023/02/08 05:25:54;;;;;;;59.67;29.30;;;;;;;-1.02;86.11;103091.47;1699791;84;27321;-46
2023/02/08 05:28:21;;;;;;;55.80;26.60;;;;;;;-1.02;86.14;103095.93;1696158;84;25556;-48
2023/02/08 05:30:48;;;;;;;68.00;37.23;;;;;;;-1.04;86.11;103101.91;1692490;84;25421;-48
2023/02/08 05:33:15;;;;;;;63.78;33.10;;;;;;;-1.03;86.15;103103.58;1692492;84;25666;-47
2023/02/08 05:35:44;;;;;;;72.58;42.48;;;;;;;-1.05;86.23;103104.25;1692509;84;25405;-50
2023/02/08 05:38:11;;;;;;;44.60;17.67;;;;;;;-1.07;86.22;103099.09;1692668;84;27334;-46
2023/02/08 05:40:37;;;;;;;64.17;24.02;;;;;;;-1.06;86.21;103103.39;1692400;84;25603;-48
2023/02/08 05:43:03;;;;;;;56.48;23.67;;;;;;;-1.08;86.25;103105.39;1692516;84;25636;-48
2023/02/08 05:45:29;;;;;;;59.30;22.27;;;;;;;-1.09;86.20;103106.41;1692418;84;25674;-47
2023/02/08 05:47:55;;;;;;;51.50;21.65;;;;;;;-1.09;86.24;103110.38;1692534;84;25644;-47
2023/02/08 05:50:21;;;;;;;52.55;21.85;;;;;;;-1.09;86.32;103114.37;1692470;84;27337;-50
2023/02/08 05:52:48;;;;;;;56.45;22.98;;;;;;;-1.10;86.28;103112.70;1692391;84;25553;-46
2023/02/08 05:55:15;;;;;;;55.25;22.93;;;;;;;-1.11;86.24;103111.53;1692503;84;25576;-48
2023/02/08 05:57:41;;;;;;;52.83;21.95;;;;;;;-1.12;86.30;103123.98;1694129;84;25815;-48
2023/02/08 06:00:11;;;;;;;54.95;21.82;;;;;;;-1.11;86.34;103125.63;1692521;84;25621;-46
2023/02/08 06:02:38;;;;;;;55.12;22.70;;;;;;;-1.10;86.37;103130.47;1692524;84;28024;-47
2023/02/08 06:05:06;;;;;;;51.10;20.08;;;;;;;-1.11;86.41;103128.29;1692396;84;25563;-46
2023/02/08 06:07:32;;;;;;;52.30;21.62;;;;;;;-1.14;86.36;103128.64;1692509;84;25473;-48
2023/02/08 06:09:59;;;;;;;50.03;20.50;;;;;;;-1.14;86.32;103129.96;1692439;84;25584;-47
2023/02/08 06:12:25;;;;;;;49.50;19.67;;;;;;;-1.15;86.36;103134.93;1692534;84;25466;-47
2023/02/08 06:14:51;;;;;;;42.58;19.75;;;;;;;-1.19;86.29;103133.09;1692468;84;27322;-46
2023/02/08 06:17:17;;;;;;;43.63;18.92;;;;;;;-1.21;86.34;103137.73;1692475;84;25788;-47
2023/02/08 06:19:44;;;;;;;44.05;18.45;;;;;;;-1.22;86.37;103143.20;1692656;84;25616;-48
2023/02/08 06:22:10;;;;;;;44.33;18.10;;;;;;;-1.22;86.47;103143.20;1692564;84;27764;-49
2023/02/08 06:24:36;;;;;;;46.40;19.50;;;;;;;-1.24;86.46;103144.70;1692616;84;25643;-49
2023/02/08 06:27:03;;;;;;;45.55;18.25;;;;;;;-1.23;86.54;103145.02;1692633;84;27037;-47
2023/02/08 06:29:29;;;;;;;46.02;19.80;;;;;;;-1.22;86.61;103149.84;1692503;84;25586;-48
2023/02/08 06:31:55;;;;;;;38.73;17.77;;;;;;;-1.21;86.64;103151.49;1692622;84;25590;-48
2023/02/08 06:34:22;;;;;;;42.90;18.42;;;;;;;-1.22;86.68;103145.36;1692539;84;25647;-48
2023/02/08 06:36:49;;;;;;;39.75;18.82;;;;;;;-1.19;86.75;103152.16;1692615;84;25613;-49
2023/02/08 06:39:16;;;;;;;44.10;17.52;;;;;;;-1.20;86.79;103156.65;1692594;84;25792;-47
2023/02/08 06:41:43;;;;;;;45.38;18.67;;;;;;;-1.18;86.79;103149.85;1692495;84;25782;-46
2023/02/08 06:44:09;;;;;;;46.15;19.25;;;;;;;-1.16;87.00;103156.69;1692604;84;25648;-48
2023/02/08 06:46:36;;;;;;;46.25;18.50;;;;;;;-1.14;87.08;103152.04;1692459;84;25633;-47
2023/02/08 06:49:02;;;;;;;49.27;21.93;;;;;;;-1.13;86.90;103153.69;1692621;84;25634;-48
2023/02/08 06:51:29;;;;;;;41.90;17.60;;;;;;;-1.12;86.83;103161.17;1692586;84;27322;-47
2023/02/08 06:53:55;;;;;;;42.55;17.75;;;;;;;-1.10;86.83;103163.67;1692531;84;25455;-49
2023/02/08 06:56:22;;;;;;;39.53;16.82;;;;;;;-1.09;86.94;103169.31;1692584;84;25552;-48
2023/02/08 06:58:48;;;;;;;42.75;19.07;;;;;;;-1.08;86.93;103177.62;1692563;84;25673;-48
2023/02/08 07:01:15;;;;;;;41.75;19.32;;;;;;;-1.10;86.87;103175.13;1692633;84;25627;-48
2023/02/08 07:03:42;;;;;;;38.42;21.20;;;;;;;-1.09;86.73;103178.61;1692602;84;27324;-48
2023/02/08 07:06:15;;;;;;;46.13;16.77;;;;;;;-1.12;86.79;103182.43;1692657;84;25457;-47
2023/02/08 07:08:42;;;;;;;36.80;16.87;;;;;;;-1.11;86.72;103186.73;1688613;84;25753;-47
2023/02/08 07:11:13;;;;;;;34.88;15.05;;;;;;;-1.09;86.92;103198.53;1691366;84;26038;-47
2023/02/08 07:13:40;;;;;;;37.55;14.68;;;;;;;-1.07;86.92;103199.20;1692700;84;25403;-47
2023/02/08 07:16:09;;;;;;;35.88;15.78;;;;;;;-1.08;86.74;103204.19;1692604;84;27375;-47
2023/02/08 07:18:36;;;;;;;29.95;17.10;;;;;;;-1.07;86.90;103205.84;1692626;84;25620;-48
2023/02/08 07:21:04;;;;;;;43.83;22.93;;;;;;;-1.06;86.89;103207.52;1692586;84;25619;-48
2023/02/08 07:23:32;;;;;;;65.50;58.55;;;;;;;-1.04;87.05;103209.52;1670820;84;25677;-47
2023/02/08 07:26:09;;;;;;;32.38;16.75;;;;;;;-1.02;87.13;103213.69;1692600;84;25497;-47
2023/02/08 07:28:36;;;;;;;69.22;62.25;;;;;;;-0.98;87.18;103211.03;1692580;84;27913;-47
2023/02/08 07:31:11;;;;;;;89.00;80.57;;;;;;;-0.96;87.15;103216.19;1692568;84;25470;-48
2023/02/08 07:33:39;;;;;;;91.97;83.62;;;;;;;-0.93;87.20;103203.92;1692668;84;25484;-47
2023/02/08 07:36:07;;;;;;;45.23;40.12;;;;;;;-0.91;87.24;103213.89;1694178;84;25598;-46
2023/02/08 07:38:36;;;;;;;65.47;59.35;;;;;;;-0.85;87.36;103207.94;1692775;84;25178;-46
2023/02/08 07:41:10;;;;;;;93.58;84.90;;;;;;;-0.81;87.31;103204.45;1692759;84;27300;-46
2023/02/08 07:43:40;;;;;;;90.03;82.57;;;;;;;-0.79;87.12;103200.63;1692647;84;25725;-47
2023/02/08 07:46:17;;;;;;;91.57;83.70;;;;;;;-0.78;86.96;103197.50;1694295;84;25407;-45
2023/02/08 07:48:44;;;;;;;90.15;82.57;;;;;;;-0.74;87.06;103203.31;1692662;84;26266;-46
2023/02/08 07:51:12;;;;;;;91.75;83.50;;;;;;;-0.73;86.66;103200.98;1692588;84;25462;-47
2023/02/08 07:53:39;;;;;;;91.30;83.07;;;;;;;-0.72;86.91;103198.16;1692586;84;27306;-47
2023/02/08 07:56:07;;;;;;;29.35;12.25;;;;;;;-0.69;86.80;103205.00;1692547;84;25503;-50
2023/02/08 07:58:34;;;;;;;30.12;12.88;;;;;;;-0.69;86.83;103203.16;1692593;84;25583;-48
2023/02/08 08:01:00;;;;;;;30.57;13.15;;;;;;;-0.66;86.94;103204.17;1692562;84;25693;-48
2023/02/08 08:03:27;;;;;;;27.20;11.68;;;;;;;-0.63;86.72;103205.18;1692633;84;25422;-48
2023/02/08 08:05:54;;;;;;;28.87;11.45;;;;;;;-0.60;86.86;103202.17;1692504;84;27313;-48
2023/02/08 08:08:21;;;;;;;26.23;11.45;;;;;;;-0.57;86.95;103210.34;1692475;84;25647;-48
2023/02/08 08:10:49;;;;;;;24.87;11.63;;;;;;;-0.51;86.76;103210.17;1692625;84;25641;-47
2023/02/08 08:13:16;;;;;;;23.10;11.38;;;;;;;-0.50;86.40;103210.02;1692632;84;25733;-47
2023/02/08 08:15:43;;;;;;;20.27;10.40;;;;;;;-0.48;86.45;103209.34;1692641;84;25631;-50
2023/02/08 08:18:10;;;;;;;21.33;9.90;;;;;;;-0.46;86.26;103210.52;1692662;84;27218;-48
2023/02/08 08:20:37;;;;;;;19.90;8.53;;;;;;;-0.46;85.85;103218.02;1692571;84;25407;-48
2023/02/08 08:23:05;;;;;;;22.02;8.80;;;;;;;-0.46;85.83;103219.34;1692624;84;25479;-50
2023/02/08 08:25:31;;;;;;;20.43;9.00;;;;;;;-0.45;85.71;103213.01;1692555;84;25633;-48
2023/02/08 08:28:01;;;;;;;15.72;8.30;;;;;;;-0.44;85.77;103215.20;1692660;84;25575;-50
2023/02/08 08:30:29;;;;;;;18.10;8.43;;;;;;;-0.42;85.82;103218.52;1692520;84;27325;-47
2023/02/08 08:32:55;;;;;;;11.97;5.58;;;;;;;-0.41;85.78;103220.16;1692523;84;25470;-47
2023/02/08 08:35:23;;;;;;;18.55;8.23;;;;;;;-0.40;85.50;103212.02;1692546;84;25658;-47
2023/02/08 08:37:50;;;;;;;15.25;7.10;;;;;;;-0.39;85.34;103213.70;1692570;84;26298;-48
2023/02/08 08:40:17;;;;;;;16.75;8.25;;;;;;;-0.36;85.43;103221.01;1692610;84;25499;-50
2023/02/08 08:42:43;;;;;;;16.77;7.62;;;;;;;-0.34;85.29;103225.19;1671068;84;27355;-49
2023/02/08 08:45:10;;;;;;;12.43;6.70;;;;;;;-0.32;85.34;103225.84;1692457;84;25864;-47
2023/02/08 08:47:36;;;;;;;13.65;6.75;;;;;;;-0.29;85.55;103227.33;1692547;84;25466;-48
2023/02/08 08:50:04;;;;;;;18.65;7.33;;;;;;;-0.20;86.28;103226.36;1692485;84;25662;-48
2023/02/08 08:52:30;;;;;;;16.10;6.53;;;;;;;-0.13;85.51;103227.36;1692612;84;25633;-46
2023/02/08 08:54:58;;;;;;;14.60;6.62;;;;;;;-0.12;85.52;103225.52;1692560;84;27441;-49
2023/02/08 08:57:24;;;;;;;18.25;7.20;;;;;;;-0.06;85.47;103228.86;1692481;84;25560;-47
2023/02/08 08:59:51;;;;;;;14.20;7.00;;;;;;;-0.06;84.52;103231.52;1692560;84;25592;-47
2023/02/08 09:02:18;;;;;;;17.57;6.78;;;;;;;-0.07;84.67;103236.02;1692588;84;27843;-51
2023/02/08 09:04:45;;;;;;;11.90;6.53;;;;;;;-0.06;84.82;103231.02;1692535;84;25435;-47
2023/02/08 09:07:11;;;;;;;15.23;6.87;;;;;;;-0.02;84.62;103232.36;1692626;84;27440;-47
2023/02/08 09:09:39;;;;;;;16.70;6.92;;;;;;;-0.01;84.53;103239.84;1692474;84;25644;-47
2023/02/08 09:12:07;;;;;;;13.48;6.47;;;;;;;0.03;84.98;103230.52;1692574;84;25637;-48
2023/02/08 09:14:33;;;;;;;13.25;6.35;;;;;;;0.09;84.48;103233.03;1692458;84;26350;-49
2023/02/08 09:17:00;;;;;;;14.28;7.33;;;;;;;0.10;84.34;103237.34;1692615;84;25423;-46
2023/02/08 09:19:27;;;;;;;14.78;7.33;;;;;;;0.13;84.29;103231.69;1692539;84;27403;-48
2023/02/08 09:21:56;;;;;;;15.80;7.12;;;;;;;0.18;84.50;103228.02;1670737;84;25616;-46
2023/02/08 09:24:24;;;;;;;20.95;7.62;;;;;;;0.28;85.11;103234.00;1692685;84;25487;-49
2023/02/08 09:26:51;;;;;;;16.85;7.65;;;;;;;0.33;84.11;103234.84;1694237;84;25678;-47
2023/02/08 09:29:18;;;;;;;17.52;7.75;;;;;;;0.32;83.74;103236.69;1696438;83;25984;-46
2023/02/08 09:31:44;;;;;;;15.98;7.30;;;;;;;0.35;83.46;103240.83;1704827;84;27401;-46
2023/02/08 09:34:11;;;;;;;15.83;7.37;;;;;;;0.40;83.70;103237.66;1704798;84;25612;-45
2023/02/08 09:36:40;;;;;;;22.82;19.27;;;;;;;0.42;83.03;103239.66;1704896;84;25578;-46
2023/02/08 09:39:18;;;;;;;22.13;9.08;;;;;;;0.45;83.06;103231.33;1704996;84;32353;-47
2023/02/08 09:42:26;;;;;;;17.30;8.53;;;;;;;0.53;83.96;103233.98;1704907;84;25428;-47
2023/02/08 09:44:59;;;;;;;11.53;5.37;;;;;;;0.62;83.22;103242.79;1705000;84;27920;-46
2023/02/08 09:47:36;;;;;;;15.40;7.25;;;;;;;0.69;82.84;103246.43;1615447;88;25555;-47
2023/02/08 09:50:33;;;;;;;16.35;6.58;;;;;;;0.70;82.50;103244.11;1615740;88;25626;-48
2023/02/08 09:53:31;;;;;;;18.80;7.37;;;;;;;0.73;82.38;103239.75;1615701;88;26181;-46
2023/02/08 09:56:06;;;;;;;17.98;7.20;;;;;;;0.74;81.53;103242.75;1615908;88;25687;-46
2023/02/08 09:58:49;;;;;;;14.90;9.18;;;;;;;0.73;81.51;103238.41;1615893;88;27402;-47
2023/02/08 10:01:27;;;;;;;19.02;9.10;;;;;;;0.78;81.83;103233.41;1614893;88;25493;-44
2023/02/08 10:04:31;;;;;;;13.68;7.08;;;;;;;0.80;81.14;103228.76;1615810;88;25516;-45
2023/02/08 10:06:57;;;;;;;16.37;7.17;;;;;;;0.82;80.99;103231.22;1615556;88;26871;-46
2023/02/08 10:09:27;;;;;;;13.22;6.30;;;;;;;0.91;81.29;103240.88;1615879;88;25471;-46
2023/02/08 10:12:05;;;;;;;12.98;5.78;;;;;;;0.91;80.31;103235.03;1615840;88;27892;-45
2023/02/08 10:14:58;;;;;;;11.55;6.25;;;;;;;0.91;78.65;103240.36;1615767;88;25659;-48
2023/02/08 10:17:33;;;;;;;11.45;5.62;;;;;;;0.93;79.88;103239.68;1615817;88;25476;-47
2023/02/08 10:20:32;;;;;;;12.23;6.40;;;;;;;0.97;79.22;103234.86;1615720;88;25822;-45
2023/02/08 10:23:33;;;;;;;9.23;5.30;;;;;;;1.00;79.45;103237.67;1615901;88;25720;-49
2023/02/08 10:26:30;;;;;;;10.60;5.00;;;;;;;0.95;77.53;103234.18;1668572;85;27446;-44
2023/02/08 10:29:05;;;;;;;9.23;4.12;;;;;;;0.93;77.64;103244.19;1664620;86;25457;-46
2023/02/08 10:31:37;;;;;;;7.83;4.10;;;;;;;0.88;74.67;103238.55;1673433;85;25611;-44
2023/02/08 10:34:35;;;;;;;7.58;3.62;;;;;;;0.81;75.56;103234.39;1673409;85;26167;-45
2023/02/08 10:37:11;;;;;;;4.67;2.05;;;;;;;0.79;75.29;103242.25;1673463;85;25609;-46
2023/02/08 10:39:39;;;;;;;2.37;1.42;;;;;;;0.72;72.20;103249.58;1665169;85;27419;-45
2023/02/08 10:42:16;;;;;;;2.47;1.50;;;;;;;0.63;70.94;103237.77;1673526;85;25515;-46
2023/02/08 10:45:20;;;;;;;3.12;1.90;;;;;;;0.58;71.79;103244.11;1673410;85;25608;-45
2023/02/08 10:48:01;;;;;;;5.30;2.20;;;;;;;0.52;72.10;103234.47;1668686;85;25667;-46
2023/02/08 10:50:46;;;;;;;4.30;2.77;;;;;;;0.53;72.75;103234.81;1673413;85;25428;-46
2023/02/08 10:53:19;;;;;;;4.25;1.92;;;;;;;0.57;72.73;103239.80;1673387;85;27543;-45
2023/02/08 10:55:48;;;;;;;5.30;2.77;;;;;;;0.55;71.66;103230.14;1673296;85;25651;-44
2023/02/08 10:58:25;;;;;;;4.70;2.60;;;;;;;0.54;71.05;103228.97;1673502;85;25588;-43
2023/02/08 11:00:56;;;;;;;4.00;2.58;;;;;;;0.54;71.85;103223.64;1641920;85;26370;-44
2023/02/08 11:03:29;;;;;;;5.90;3.10;;;;;;;0.57;70.93;103229.15;1673417;85;25596;-45
2023/02/08 11:05:57;;;;;;;6.30;3.02;;;;;;;0.55;71.02;103223.98;1641848;85;26731;-44
2023/02/08 11:08:26;;;;;;;6.08;3.12;;;;;;;0.54;70.98;103215.66;1673367;85;25630;-44
2023/02/08 11:11:09;;;;;;;4.12;3.08;;;;;;;0.60;71.98;103208.84;1673694;85;25678;-44
2023/02/08 11:13:39;;;;;;;6.45;3.20;;;;;;;0.65;71.80;103208.64;1626952;88;25750;-43
2023/02/08 11:16:11;;;;;;;4.83;3.10;;;;;;;0.66;71.24;103215.61;1661622;86;25542;-44
2023/02/08 11:18:55;;;;;;;4.62;3.10;;;;;;;0.68;70.45;103220.77;1661591;86;27409;-44
2023/02/08 11:21:35;;;;;;;7.05;3.37;;;;;;;0.68;71.33;103217.63;1661627;86;25650;-45
2023/02/08 11:24:16;;;;;;;8.38;4.00;;;;;;;0.72;70.69;103223.45;1661639;86;25536;-45
2023/02/08 11:26:43;;;;;;;7.20;3.60;;;;;;;0.69;70.76;103219.27;1598065;88;26622;-44
2023/02/08 11:29:26;;;;;;;6.12;4.05;;;;;;;0.71;71.06;103216.45;1661654;86;25697;-43
2023/02/08 11:32:01;;;;;;;8.00;3.80;;;;;;;0.72;70.91;103218.12;1652531;86;27483;-44
2023/02/08 11:34:32;;;;;;;8.53;3.67;;;;;;;0.76;71.64;103210.09;1652488;86;25217;-46
2023/02/08 11:37:13;;;;;;;51.02;26.77;;;;;;;0.77;70.32;103218.44;1652546;86;25642;-44